Time;durP1;ratioP1;P1;durP2;ratioP2;P2;SDS_P1;SDS_P2;PMS_P1;PMS_P2;Temp;Humidity;BMP_temperature;BMP_pressure;BME280_temperature;BME280_humidity;BME280_pressure;Samples;Min_cycle;Max_cycle;Signal;HPM_P1;HPM_P2
2022/06/28 00:02:20;;;;;;;7.40;2.80;;;;;;;23.82;53.93;100154.94;106056;1271;22529;-63
2022/06/28 00:04:54;;;;;;;10.10;3.00;;;;;;;23.80;53.82;100152.06;106123;1270;22695;-63
2022/06/28 00:07:26;;;;;;;8.30;2.80;;;;;;;23.78;54.01;100140.36;106145;1271;24331;-61
2022/06/28 00:10:04;;;;;;;;;;;;;;;23.77;54.05;100138.95;106165;1271;23090;-63
2022/06/28 00:12:40;;;;;;;11.50;3.30;;;;;;;23.73;54.31;100138.16;106379;1270;22554;-63
2022/06/28 00:18:03;;;;;;;8.00;2.60;;;;;;;23.69;54.53;100134.79;105817;1271;24268;-63
2022/06/28 00:20:35;;;;;;;8.50;3.00;;;;;;;23.67;54.60;100134.73;106098;1270;22708;-63
2022/06/28 00:23:06;;;;;;;10.20;3.00;;;;;;;23.64;54.69;100136.78;106264;1270;25364;-63
2022/06/28 00:25:38;;;;;;;10.20;2.90;;;;;;;23.60;54.78;100143.08;106150;1270;22553;-61
2022/06/28 00:28:10;;;;;;;9.20;3.20;;;;;;;23.57;55.03;100152.52;106202;1270;25384;-63
2022/06/28 00:30:42;;;;;;;9.00;3.00;;;;;;;23.54;55.17;100151.52;106059;1271;25928;-62
2022/06/28 00:33:14;;;;;;;13.90;3.40;;;;;;;23.51;55.26;100153.94;106211;1271;26541;-63
2022/06/28 00:35:46;;;;;;;9.10;3.10;;;;;;;23.48;55.50;100157.05;106079;1270;24415;-63
2022/06/28 00:38:18;;;;;;;13.10;3.20;;;;;;;23.46;55.47;100160.38;106240;1270;22460;-61
2022/06/28 00:40:52;;;;;;;8.40;2.90;;;;;;;23.44;55.55;100163.51;106036;1271;25266;-61
2022/06/28 00:43:27;;;;;;;10.30;3.10;;;;;;;23.41;55.83;100166.10;106028;1271;25221;-64
2022/06/28 00:46:00;;;;;;;10.90;3.30;;;;;;;23.37;56.25;100185.23;106018;1271;22650;-63
2022/06/28 00:48:32;;;;;;;8.60;2.80;;;;;;;23.27;56.65;100209.52;106153;1271;22720;-62
2022/06/28 00:51:04;;;;;;;9.20;3.30;;;;;;;23.20;56.41;100202.00;106165;1270;22532;-63
2022/06/28 00:53:36;;;;;;;6.90;3.10;;;;;;;23.18;56.82;100202.60;106151;1270;22476;-64
2022/06/28 00:56:08;;;;;;;8.80;3.50;;;;;;;23.09;57.08;100212.48;106084;1270;24289;-62
2022/06/28 00:58:40;;;;;;;7.00;2.40;;;;;;;22.97;57.34;100227.02;106205;1271;24705;-62
2022/06/28 01:01:12;;;;;;;9.60;2.90;;;;;;;22.88;57.47;100229.52;106101;1270;25222;-62
2022/06/28 01:03:44;;;;;;;9.30;3.00;;;;;;;22.84;57.75;100235.79;106129;1271;22566;-63
2022/06/28 01:06:15;;;;;;;11.10;3.10;;;;;;;22.82;57.92;100235.14;106148;1270;22678;-63
2022/06/28 01:08:48;;;;;;;10.20;3.20;;;;;;;22.79;58.01;100234.92;106344;1270;24287;-60
2022/06/28 01:11:21;;;;;;;8.60;3.10;;;;;;;22.79;58.05;100230.45;106163;1270;22525;-61
2022/06/28 01:13:55;;;;;;;10.70;2.70;;;;;;;22.80;58.27;100224.27;106201;1271;25252;-62
2022/06/28 01:16:27;;;;;;;8.80;3.20;;;;;;;22.80;57.97;100224.48;106128;1270;22545;-62
2022/06/28 01:18:59;;;;;;;11.60;3.40;;;;;;;22.82;58.19;100224.39;106211;1271;25668;-62
2022/06/28 01:21:33;;;;;;;9.30;3.10;;;;;;;22.82;58.49;100228.02;106218;1271;22570;-62
2022/06/28 01:24:06;;;;;;;9.60;3.10;;;;;;;22.79;58.64;100231.77;106224;1271;25334;-60
2022/06/28 01:26:39;;;;;;;6.90;2.70;;;;;;;22.77;58.73;100239.28;106152;1271;22594;-63
2022/06/28 01:29:11;;;;;;;8.90;3.10;;;;;;;22.76;58.74;100238.04;106259;1271;24823;-61
2022/06/28 01:31:43;;;;;;;9.00;2.70;;;;;;;22.76;58.96;100228.77;106224;1271;24453;-61
2022/06/28 01:34:16;;;;;;;7.70;3.00;;;;;;;22.76;58.90;100220.48;106033;1271;25417;-62
2022/06/28 01:36:49;;;;;;;7.60;3.40;;;;;;;22.75;58.91;100216.13;106123;1271;24212;-62
2022/06/28 01:39:21;;;;;;;10.40;3.40;;;;;;;22.72;59.01;100218.27;106182;1271;22539;-62
2022/06/28 01:41:54;;;;;;;9.30;3.20;;;;;;;22.71;59.28;100219.01;106170;1270;24231;-62
2022/06/28 01:44:26;;;;;;;9.70;3.30;;;;;;;22.69;59.37;100222.48;106161;1270;22544;-63
2022/06/28 01:47:01;;;;;;;9.50;3.00;;;;;;;22.67;59.47;100226.52;106099;1271;22752;-60
2022/06/28 01:49:33;;;;;;;8.90;2.60;;;;;;;22.66;59.52;100229.30;106265;1271;25916;-60
2022/06/28 01:52:04;;;;;;;12.50;3.20;;;;;;;22.64;59.75;100229.71;106108;1271;22990;-62
2022/06/28 01:54:36;;;;;;;9.30;2.90;;;;;;;22.62;60.40;100228.91;106159;1271;26557;-63
2022/06/28 01:57:08;;;;;;;9.30;3.50;;;;;;;22.59;60.72;100228.52;106125;1271;24246;-60
2022/06/28 01:59:40;;;;;;;10.40;3.70;;;;;;;22.59;60.97;100236.49;106185;1271;22534;-61
2022/06/28 02:02:12;;;;;;;9.60;3.50;;;;;;;22.60;61.24;100236.27;106132;1270;22523;-62
2022/06/28 02:04:45;;;;;;;7.60;3.30;;;;;;;22.61;61.86;100237.52;106014;1271;22534;-62
2022/06/28 02:07:16;;;;;;;9.30;3.40;;;;;;;22.67;61.84;100237.13;106080;1271;22522;-62
2022/06/28 02:09:49;;;;;;;9.20;3.90;;;;;;;22.71;61.83;100246.93;106079;1271;22537;-62
2022/06/28 02:12:20;;;;;;;8.80;3.20;;;;;;;22.74;62.21;100251.92;106076;1271;22575;-62
2022/06/28 02:14:53;;;;;;;9.10;4.20;;;;;;;22.80;62.44;100255.96;106279;1271;23968;-62
2022/06/28 02:17:24;;;;;;;10.60;4.50;;;;;;;22.89;62.42;100258.23;106057;1271;25446;-61
2022/06/28 02:19:55;;;;;;;8.20;3.30;;;;;;;22.98;62.37;100262.39;106197;1271;22543;-60
2022/06/28 02:22:27;;;;;;;10.00;3.50;;;;;;;23.08;62.50;100262.34;106178;1271;24692;-62
2022/06/28 02:24:59;;;;;;;13.30;3.90;;;;;;;23.20;62.43;100273.08;106135;1271;22529;-61
2022/06/28 02:27:31;;;;;;;9.20;3.50;;;;;;;23.33;62.15;100271.73;106060;1271;25358;-63
2022/06/28 02:30:03;;;;;;;9.90;3.00;;;;;;;23.43;62.05;100273.45;106025;1271;26602;-62
2022/06/28 02:32:35;;;;;;;9.10;3.30;;;;;;;23.56;61.70;100283.34;105819;1271;24188;-62
2022/06/28 02:40:45;;;;;;;10.00;2.70;;;;;;;23.79;60.94;100292.09;106057;1271;22547;-63
2022/06/28 02:43:17;;;;;;;10.50;3.20;;;;;;;23.83;60.78;100296.76;106125;1271;22530;-64
2022/06/28 02:45:49;;;;;;;9.50;3.40;;;;;;;23.86;60.72;100300.14;106163;1271;22514;-63
2022/06/28 02:48:20;;;;;;;8.90;2.80;;;;;;;23.88;60.57;100305.39;106259;1271;24234;-63
2022/06/28 02:50:52;;;;;;;8.50;3.50;;;;;;;23.90;60.53;100307.56;106252;1271;24597;-63
2022/06/28 02:53:24;;;;;;;7.70;3.70;;;;;;;23.93;60.43;100313.33;106007;1271;23644;-62
2022/06/28 02:55:55;;;;;;;10.50;3.10;;;;;;;23.93;60.43;100320.38;106041;1271;24242;-62
2022/06/28 02:58:27;;;;;;;9.40;3.40;;;;;;;23.93;60.49;100323.60;106254;1271;23205;-62
2022/06/28 03:00:58;;;;;;;22.40;3.40;;;;;;;23.92;60.55;100325.54;106061;1271;24262;-63
2022/06/28 03:03:31;;;;;;;10.80;3.70;;;;;;;23.92;60.54;100327.35;106090;1271;25343;-61
2022/06/28 03:06:03;;;;;;;8.20;3.40;;;;;;;23.92;60.59;100332.07;106060;1271;25340;-63
2022/06/28 03:08:35;;;;;;;8.50;3.80;;;;;;;23.90;60.61;100336.18;106183;1270;22524;-60
2022/06/28 03:11:07;;;;;;;10.00;3.30;;;;;;;23.87;60.71;100343.63;106104;1271;22703;-62
2022/06/28 03:13:39;;;;;;;11.60;3.20;;;;;;;23.82;60.78;100350.52;106059;1271;22548;-63
2022/06/28 03:16:14;;;;;;;13.10;3.50;;;;;;;23.75;60.99;100347.27;106124;1271;26627;-62
2022/06/28 03:18:46;;;;;;;12.10;3.50;;;;;;;23.67;61.07;100339.02;106184;1271;22877;-62
2022/06/28 03:21:17;;;;;;;8.70;3.00;;;;;;;23.62;61.22;100322.94;106018;1271;25398;-62
2022/06/28 03:23:49;;;;;;;8.50;2.50;;;;;;;23.57;61.34;100317.30;105943;1271;22532;-61
2022/06/28 03:26:21;;;;;;;13.20;3.40;;;;;;;23.52;61.52;100318.73;106031;1271;24227;-60
2022/06/28 03:28:53;;;;;;;8.30;3.40;;;;;;;23.48;61.71;100327.48;106202;1271;22653;-62
2022/06/28 03:31:24;;;;;;;9.00;3.50;;;;;;;23.45;61.78;100327.96;106030;1271;22554;-62
2022/06/28 03:33:56;;;;;;;10.60;3.30;;;;;;;23.42;61.77;100327.12;106094;1271;25457;-62
2022/06/28 03:36:27;;;;;;;10.50;3.80;;;;;;;23.40;61.97;100323.93;106081;1271;25293;-60
2022/06/28 03:38:59;;;;;;;10.00;3.80;;;;;;;23.38;62.15;100324.61;106112;1271;22526;-62
2022/06/28 03:41:31;;;;;;;11.50;3.30;;;;;;;23.34;62.45;100329.48;106030;1270;22701;-63
2022/06/28 03:44:03;;;;;;;7.60;2.50;;;;;;;23.28;62.71;100345.77;105970;1271;22530;-62
2022/06/28 03:46:35;;;;;;;10.70;2.80;;;;;;;23.24;63.17;100367.67;105911;1271;24265;-62
2022/06/28 03:49:06;;;;;;;10.40;2.80;;;;;;;23.19;63.48;100378.30;105998;1271;25416;-62
2022/06/28 03:51:38;;;;;;;11.60;3.30;;;;;;;23.13;63.63;100383.86;106053;1271;22546;-61
2022/06/28 03:54:09;;;;;;;8.70;3.00;;;;;;;23.08;64.05;100387.33;105794;1271;24331;-61
2022/06/28 03:56:41;;;;;;;8.60;3.40;;;;;;;23.04;64.44;100387.92;106118;1271;25352;-62
2022/06/28 03:59:12;;;;;;;9.50;3.70;;;;;;;23.00;64.47;100393.37;106015;1271;22481;-62
2022/06/28 04:01:44;;;;;;;8.50;3.40;;;;;;;22.95;64.92;100390.45;106324;1271;25357;-60
2022/06/28 04:04:15;;;;;;;9.80;3.30;;;;;;;22.91;65.26;100395.19;106336;1271;22522;-60
2022/06/28 04:06:47;;;;;;;9.40;3.30;;;;;;;22.88;65.51;100398.33;105983;1271;22591;-62
2022/06/28 04:09:19;;;;;;;8.90;3.60;;;;;;;22.85;65.67;100392.77;105997;1270;22527;-61
2022/06/28 04:11:52;;;;;;;8.50;3.90;;;;;;;22.83;65.86;100391.58;105975;1270;24229;-63
2022/06/28 04:14:24;;;;;;;10.60;4.20;;;;;;;22.82;66.12;100387.52;105909;1270;22642;-61
2022/06/28 04:16:55;;;;;;;9.90;3.60;;;;;;;22.79;66.47;100388.33;105939;1270;25314;-60
2022/06/28 04:19:27;;;;;;;8.60;3.70;;;;;;;22.77;66.44;100388.92;106320;1270;22614;-63
2022/06/28 04:21:59;;;;;;;7.30;3.20;;;;;;;22.76;66.56;100392.14;106015;1270;26596;-62
2022/06/28 04:24:31;;;;;;;9.90;3.80;;;;;;;22.75;66.93;100396.42;105940;1270;22550;-61
2022/06/28 04:27:03;;;;;;;13.20;4.50;;;;;;;22.73;67.02;100394.20;106146;1271;25337;-62
2022/06/28 04:29:35;;;;;;;9.40;4.20;;;;;;;22.70;67.14;100393.70;106035;1270;24125;-62
2022/06/28 04:32:09;;;;;;;11.80;3.70;;;;;;;22.68;67.54;100396.15;105958;1271;22557;-61
2022/06/28 04:34:41;;;;;;;9.40;3.60;;;;;;;22.65;67.75;100392.45;106082;1270;24244;-61
2022/06/28 04:37:12;;;;;;;12.30;4.20;;;;;;;22.63;68.21;100393.23;106040;1270;25535;-62
2022/06/28 04:39:45;;;;;;;8.40;3.80;;;;;;;22.59;68.25;100395.37;105937;1270;24243;-61
2022/06/28 04:42:17;;;;;;;10.50;4.20;;;;;;;22.55;68.10;100399.56;106071;1270;25267;-64
2022/06/28 04:44:49;;;;;;;12.20;4.20;;;;;;;22.56;68.21;100405.04;106160;1270;24309;-60
2022/06/28 04:47:23;;;;;;;11.30;4.80;;;;;;;22.57;68.24;100399.70;106094;1271;22669;-63
2022/06/28 04:49:54;;;;;;;14.20;4.60;;;;;;;22.57;68.56;100391.32;106058;1271;22608;-63
2022/06/28 04:52:26;;;;;;;8.20;4.10;;;;;;;22.55;68.52;100393.61;106003;1271;25496;-62
2022/06/28 04:54:58;;;;;;;11.60;4.40;;;;;;;22.54;69.17;100388.75;105971;1271;22538;-64
2022/06/28 04:57:30;;;;;;;11.60;5.50;;;;;;;22.49;69.19;100379.32;105918;1270;22672;-62
2022/06/28 05:00:01;;;;;;;8.20;4.20;;;;;;;22.46;69.38;100372.36;106078;1270;26141;-62
2022/06/28 05:02:36;;;;;;;10.10;5.00;;;;;;;22.44;69.45;100375.77;106170;1270;22554;-62
2022/06/28 05:05:09;;;;;;;9.40;4.30;;;;;;;22.42;69.52;100381.17;106211;1270;22527;-62
2022/06/28 05:07:41;;;;;;;11.20;4.60;;;;;;;22.43;69.38;100378.70;106127;1270;24659;-62
2022/06/28 05:10:16;;;;;;;12.20;5.50;;;;;;;22.46;69.59;100380.86;105971;1270;25521;-62
2022/06/28 05:12:48;;;;;;;10.70;4.70;;;;;;;22.48;69.34;100383.52;106145;1270;22554;-62
2022/06/28 05:15:20;;;;;;;9.60;4.10;;;;;;;22.51;69.68;100379.23;106024;1270;24297;-62
2022/06/28 05:17:55;;;;;;;11.10;4.40;;;;;;;22.53;69.66;100374.02;106062;1270;22622;-63
2022/06/28 05:20:27;;;;;;;13.40;4.70;;;;;;;22.57;69.40;100370.53;106097;1271;22579;-61
2022/06/28 05:22:58;;;;;;;12.50;4.90;;;;;;;22.63;69.16;100373.94;106072;1270;24619;-63
2022/06/28 05:25:30;;;;;;;12.90;5.70;;;;;;;22.72;69.22;100368.44;106750;1270;24853;-61
2022/06/28 05:28:02;;;;;;;10.20;4.70;;;;;;;22.80;69.06;100371.34;105988;1271;22558;-62
2022/06/28 05:30:35;;;;;;;12.20;4.50;;;;;;;22.85;69.21;100368.58;106047;1271;24238;-62
2022/06/28 05:33:08;;;;;;;9.50;3.80;;;;;;;22.90;69.17;100372.63;106050;1271;22568;-61
2022/06/28 05:35:42;;;;;;;11.10;4.90;;;;;;;22.95;69.26;100371.67;106361;1261;25257;-62
2022/06/28 05:38:15;;;;;;;11.70;4.60;;;;;;;22.99;69.17;100378.44;106396;1270;25064;-63
2022/06/28 05:40:49;;;;;;;9.70;4.40;;;;;;;23.00;69.36;100379.33;106368;1270;22534;-62
2022/06/28 05:43:22;;;;;;;12.60;4.40;;;;;;;23.01;69.64;100384.35;106085;1271;22707;-62
2022/06/28 05:45:54;;;;;;;10.20;4.60;;;;;;;23.01;69.59;100382.79;106052;1270;22852;-62
2022/06/28 05:48:26;;;;;;;11.80;3.70;;;;;;;23.02;69.45;100387.92;105947;1271;25318;-63
2022/06/28 05:50:58;;;;;;;10.40;4.30;;;;;;;23.06;69.61;100394.42;106115;1269;22588;-61
2022/06/28 05:53:31;;;;;;;9.70;5.10;;;;;;;23.09;69.47;100399.15;105972;1271;22616;-61
2022/06/28 05:56:03;;;;;;;9.20;4.30;;;;;;;23.15;69.55;100404.52;106258;1270;22574;-62
2022/06/28 05:58:35;;;;;;;10.30;4.10;;;;;;;23.20;69.66;100410.73;106123;1269;22598;-62
2022/06/28 06:01:07;;;;;;;11.00;4.10;;;;;;;23.27;69.52;100417.84;106040;1270;22637;-63
2022/06/28 06:03:39;;;;;;;9.80;4.10;;;;;;;23.34;69.41;100422.25;106086;1271;25023;-62
2022/06/28 06:06:10;;;;;;;7.90;4.40;;;;;;;23.39;69.24;100416.58;106028;1270;24301;-62
2022/06/28 06:08:42;;;;;;;10.10;4.80;;;;;;;23.39;69.32;100418.90;106047;1271;22703;-62
2022/06/28 06:11:14;;;;;;;10.30;4.80;;;;;;;23.44;69.34;100424.35;106055;1271;22635;-62
2022/06/28 06:13:45;;;;;;;9.40;3.50;;;;;;;23.47;69.31;100426.37;106053;1270;24404;-62
2022/06/28 06:16:17;;;;;;;9.40;4.10;;;;;;;23.44;69.03;100430.92;105862;1270;24381;-63
2022/06/28 06:18:49;;;;;;;15.00;4.40;;;;;;;23.39;69.20;100439.98;105989;1270;24251;-62
2022/06/28 06:21:21;;;;;;;11.80;4.50;;;;;;;23.37;69.10;100446.92;105983;1270;22528;-62
2022/06/28 06:23:53;;;;;;;8.10;4.30;;;;;;;23.33;69.22;100453.16;106027;1270;22663;-64
2022/06/28 06:26:28;;;;;;;13.50;4.50;;;;;;;23.28;69.36;100462.09;106049;1270;25320;-62
2022/06/28 06:29:01;;;;;;;20.30;4.90;;;;;;;23.21;69.35;100470.22;106058;1270;25678;-62
2022/06/28 06:31:34;;;;;;;11.90;4.40;;;;;;;23.14;69.50;100478.11;106111;1271;22761;-63
2022/06/28 06:34:08;;;;;;;10.90;5.60;;;;;;;23.11;69.57;100482.62;106350;1258;22638;-63
2022/06/28 06:36:41;;;;;;;11.70;4.50;;;;;;;23.02;69.40;100489.40;105971;1270;23212;-61
2022/06/28 06:39:16;;;;;;;13.20;5.00;;;;;;;22.96;69.47;100500.16;105980;1270;22559;-63
2022/06/28 06:41:51;;;;;;;8.80;4.00;;;;;;;22.92;69.57;100506.60;106008;1270;25456;-62
2022/06/28 06:44:25;;;;;;;13.30;4.90;;;;;;;22.84;69.56;100518.20;106215;1270;23439;-61
2022/06/28 06:47:02;;;;;;;11.60;4.20;;;;;;;22.76;69.90;100522.46;106477;1270;24203;-63
2022/06/28 06:49:36;;;;;;;9.80;4.60;;;;;;;22.66;69.82;100529.81;106006;1270;22543;-62
2022/06/28 06:52:15;;;;;;;10.20;4.20;;;;;;;22.58;70.05;100539.27;105913;1270;22544;-62
2022/06/28 06:54:56;;;;;;;20.00;5.30;;;;;;;22.52;70.18;100538.40;106041;1270;24806;-62
2022/06/28 06:57:29;;;;;;;17.70;4.50;;;;;;;22.49;70.35;100538.23;105995;1270;22550;-61
2022/06/28 07:00:06;;;;;;;10.10;4.40;;;;;;;22.47;70.42;100536.27;105874;1271;24237;-62
2022/06/28 07:02:42;;;;;;;10.70;4.10;;;;;;;22.46;70.54;100539.02;106856;1270;24248;-62
2022/06/28 07:05:16;;;;;;;13.70;4.20;;;;;;;22.44;70.59;100547.61;105935;1270;22684;-61
2022/06/28 07:07:49;;;;;;;11.40;4.00;;;;;;;22.41;70.66;100552.29;105999;1270;23222;-61
2022/06/28 07:10:22;;;;;;;9.70;4.30;;;;;;;22.38;70.68;100560.10;106158;1265;24438;-61
2022/06/28 07:12:55;;;;;;;7.50;3.30;;;;;;;22.35;70.77;100565.16;106011;1270;22598;-61
2022/06/28 07:15:28;;;;;;;10.00;3.70;;;;;;;22.30;70.82;100569.93;106095;1270;26879;-62
2022/06/28 07:18:04;;;;;;;11.10;4.00;;;;;;;22.25;70.99;100572.41;106165;1270;22525;-62
2022/06/28 07:20:39;;;;;;;11.90;3.90;;;;;;;22.21;71.22;100578.16;106055;1270;25676;-62
2022/06/28 07:23:13;;;;;;;14.50;4.10;;;;;;;22.14;71.54;100586.64;106246;1270;25630;-61
2022/06/28 07:25:47;;;;;;;8.70;3.80;;;;;;;22.05;71.78;100587.20;106198;1271;25419;-60
2022/06/28 07:28:20;;;;;;;9.40;3.50;;;;;;;21.99;72.01;100585.65;106373;1271;22561;-62
2022/06/28 07:30:57;;;;;;;9.10;3.60;;;;;;;21.95;72.21;100581.89;106218;1269;22605;-61
2022/06/28 07:33:33;;;;;;;6.80;3.10;;;;;;;21.96;72.55;100579.75;106006;1271;22602;-62
2022/06/28 07:36:06;;;;;;;7.60;2.70;;;;;;;21.98;72.56;100584.31;106413;1270;22544;-63
2022/06/28 07:38:52;;;;;;;8.40;2.80;;;;;;;22.00;72.50;100585.81;106429;1269;26695;-62
2022/06/28 07:41:24;;;;;;;19.90;3.70;;;;;;;22.02;72.66;100586.75;106051;1271;25347;-62
2022/06/28 07:43:58;;;;;;;6.20;2.30;;;;;;;22.06;72.63;100594.06;106025;1271;24315;-62
2022/06/28 07:46:32;;;;;;;6.50;2.40;;;;;;;22.07;72.47;100593.10;106282;1270;26120;-63
2022/06/28 07:49:06;;;;;;;5.80;2.20;;;;;;;22.11;72.07;100596.95;106278;1270;22581;-62
2022/06/28 07:54:27;;;;;;;6.20;2.10;;;;;;;22.19;71.53;100600.52;106029;1270;22529;-62
2022/06/28 07:56:59;;;;;;;6.40;1.80;;;;;;;22.28;71.35;100601.31;106064;1270;24306;-65
2022/06/28 07:59:31;;;;;;;7.30;1.80;;;;;;;22.41;71.07;100604.93;106642;1258;22614;-59
2022/06/28 08:02:02;;;;;;;6.70;1.60;;;;;;;22.52;70.63;100601.72;106112;1270;22611;-58
2022/06/28 08:04:34;;;;;;;6.20;1.80;;;;;;;22.69;70.30;100597.98;106004;1271;23102;-57
2022/06/28 08:07:06;;;;;;;9.40;2.30;;;;;;;22.87;69.98;100594.17;106072;1268;24211;-57
2022/06/28 08:09:38;;;;;;;9.20;2.50;;;;;;;23.02;70.25;100596.60;106093;1271;22693;-55
2022/06/28 08:12:11;;;;;;;5.80;2.00;;;;;;;23.14;69.46;100594.57;105985;1270;25990;-56
2022/06/28 08:14:42;;;;;;;9.40;2.10;;;;;;;23.19;69.23;100592.37;105996;1270;26572;-57
2022/06/28 08:17:14;;;;;;;6.90;1.90;;;;;;;23.22;68.60;100594.67;105982;1271;22642;-54
2022/06/28 08:19:45;;;;;;;5.70;1.60;;;;;;;23.30;68.57;100602.48;105687;1271;578871;-58
2022/06/28 08:22:17;;;;;;;5.90;1.90;;;;;;;23.34;68.19;100607.73;105958;1271;22671;-57
2022/06/28 08:24:49;;;;;;;7.70;2.30;;;;;;;23.38;68.44;100609.43;107258;1270;22590;-59
2022/06/28 08:27:21;;;;;;;7.90;2.10;;;;;;;23.45;68.18;100615.21;105952;1270;24267;-56
2022/06/28 08:29:53;;;;;;;5.40;1.70;;;;;;;23.48;67.90;100618.95;106113;1270;24406;-60
2022/06/28 08:32:26;;;;;;;6.90;2.00;;;;;;;23.47;67.05;100621.39;105877;1271;22544;-57
2022/06/28 08:34:57;;;;;;;5.40;1.60;;;;;;;23.45;67.03;100623.39;106012;1271;25809;-55
2022/06/28 08:37:29;;;;;;;5.70;1.60;;;;;;;23.48;66.86;100623.05;106124;1270;22610;-56
2022/06/28 08:40:01;;;;;;;8.30;1.90;;;;;;;23.50;66.22;100627.71;105938;1271;22618;-58
2022/06/28 08:42:38;;;;;;;5.60;1.30;;;;;;;23.47;65.81;100627.58;105957;1271;24371;-55
2022/06/28 08:45:13;;;;;;;4.10;1.30;;;;;;;23.45;65.92;100624.45;108001;1270;22546;-57
2022/06/28 08:47:49;;;;;;;9.20;2.00;;;;;;;23.46;65.54;100627.73;106084;1270;24273;-57
2022/06/28 08:50:32;;;;;;;4.70;1.60;;;;;;;23.47;65.30;100621.95;107575;1269;22549;-56
2022/06/28 08:53:07;;;;;;;3.80;1.30;;;;;;;23.54;65.08;100629.52;106101;1270;26634;-57
2022/06/28 08:55:40;;;;;;;4.90;1.20;;;;;;;23.58;64.74;100627.54;106058;1270;25309;-56
2022/06/28 08:58:11;;;;;;;5.50;1.10;;;;;;;23.62;64.73;100628.20;106187;1271;22546;-57
2022/06/28 09:00:43;;;;;;;3.40;1.10;;;;;;;23.70;64.37;100628.77;105990;1271;25223;-58
2022/06/28 09:03:16;;;;;;;4.10;1.00;;;;;;;23.72;63.78;100632.48;106005;1271;23877;-56
2022/06/28 09:05:47;;;;;;;4.60;1.20;;;;;;;23.75;64.02;100634.97;106068;1271;22533;-57
2022/06/28 09:08:19;;;;;;;5.90;1.20;;;;;;;23.81;63.56;100638.81;105873;1270;25317;-57
2022/06/28 09:10:51;;;;;;;3.60;1.20;;;;;;;23.81;63.26;100643.48;105993;1270;22554;-58
2022/06/28 09:13:23;;;;;;;2.50;1.10;;;;;;;23.74;63.27;100645.08;106000;1269;25299;-57
2022/06/28 09:15:58;;;;;;;3.70;1.20;;;;;;;23.68;63.25;100651.49;106052;1271;25038;-55
2022/06/28 09:18:46;;;;;;;4.20;1.30;;;;;;;23.62;63.27;100653.13;106071;1271;22562;-57
2022/06/28 09:21:20;;;;;;;4.50;1.30;;;;;;;23.56;63.58;100653.29;105884;1271;22545;-57
2022/06/28 09:23:53;;;;;;;5.40;1.50;;;;;;;23.52;63.58;100659.21;105850;1270;26045;-56
2022/06/28 09:26:25;;;;;;;7.20;2.00;;;;;;;23.46;63.57;100659.75;105896;1271;22546;-59
2022/06/28 09:28:57;;;;;;;5.80;2.30;;;;;;;23.41;63.89;100665.73;106107;1271;25368;-56
2022/06/28 09:31:31;;;;;;;6.60;2.80;;;;;;;23.37;64.18;100670.52;106051;1270;24241;-54
2022/06/28 09:34:13;;;;;;;6.60;2.70;;;;;;;23.29;64.45;100667.66;105973;1271;22709;-56
2022/06/28 09:36:56;;;;;;;10.20;2.80;;;;;;;23.22;64.69;100675.83;106118;1271;24373;-56
2022/06/28 09:39:30;;;;;;;6.40;2.70;;;;;;;23.13;64.95;100682.33;105953;1270;22548;-56
2022/06/28 09:42:07;;;;;;;6.20;2.60;;;;;;;23.04;65.12;100684.95;105943;1271;22544;-57
2022/06/28 09:44:42;;;;;;;8.90;2.30;;;;;;;22.98;65.30;100688.41;105966;1271;24318;-55
2022/06/28 09:47:17;;;;;;;6.50;2.10;;;;;;;22.91;65.51;100687.48;106113;1271;25467;-57
2022/06/28 09:49:51;;;;;;;6.30;2.00;;;;;;;22.86;65.55;100693.04;106075;1270;22529;-57
2022/06/28 09:52:29;;;;;;;8.00;2.10;;;;;;;22.80;65.88;100694.42;106065;1270;22550;-57
2022/06/28 09:55:01;;;;;;;6.80;1.90;;;;;;;22.74;66.06;100688.83;105895;1271;22553;-57
2022/06/28 09:57:35;;;;;;;8.90;2.40;;;;;;;22.72;66.09;100689.33;105956;1271;25236;-56
2022/06/28 10:00:09;;;;;;;7.30;2.10;;;;;;;22.71;66.17;100688.08;105938;1271;22577;-56
2022/06/28 10:02:44;;;;;;;6.20;2.00;;;;;;;22.71;66.37;100684.81;106234;1270;22568;-56
2022/06/28 10:05:17;;;;;;;6.90;1.80;;;;;;;22.74;66.47;100686.61;105956;1271;24247;-56
2022/06/28 10:07:49;;;;;;;5.60;1.80;;;;;;;22.77;66.36;100686.95;106103;1270;22749;-59
2022/06/28 10:10:24;;;;;;;4.80;1.60;;;;;;;22.79;66.15;100689.48;105911;1271;25246;-58
2022/06/28 10:15:49;;;;;;;;;;;;;;;22.80;66.07;100689.67;105962;1271;22980;-56
2022/06/28 10:18:23;;;;;;;6.20;1.90;;;;;;;22.84;66.04;100684.60;106065;1271;25191;-56
2022/06/28 10:20:56;;;;;;;5.40;2.30;;;;;;;22.93;66.06;100686.46;105989;1271;23077;-57
2022/06/28 10:23:36;;;;;;;5.10;1.80;;;;;;;23.07;65.85;100683.27;106084;1270;22538;-56
2022/06/28 10:26:11;;;;;;;6.60;2.20;;;;;;;23.23;65.56;100685.69;105905;1270;22561;-56
2022/06/28 10:28:45;;;;;;;6.70;2.20;;;;;;;23.46;65.48;100684.30;106048;1270;22557;-55
2022/06/28 10:31:39;;;;;;;5.60;2.10;;;;;;;23.68;64.78;100686.08;106037;1271;22557;-55
2022/06/28 10:34:13;;;;;;;7.90;1.90;;;;;;;23.85;64.22;100685.85;108134;1269;24308;-57
2022/06/28 10:37:00;;;;;;;4.30;1.50;;;;;;;23.99;63.57;100687.99;106042;1271;24271;-57
2022/06/28 10:39:34;;;;;;;4.50;1.40;;;;;;;24.15;62.83;100691.66;106072;1271;23642;-55
2022/06/28 10:42:17;;;;;;;3.60;1.20;;;;;;;24.27;62.41;100686.59;106120;1269;22557;-55
2022/06/28 10:44:49;;;;;;;3.40;1.60;;;;;;;24.40;61.74;100686.80;105956;1270;22549;-58
2022/06/28 10:47:21;;;;;;;4.00;1.50;;;;;;;24.52;61.52;100686.64;106058;1271;22528;-56
2022/06/28 10:49:59;;;;;;;6.40;1.60;;;;;;;24.63;61.22;100690.71;105913;1271;23053;-56
2022/06/28 10:52:34;;;;;;;5.20;1.90;;;;;;;24.68;60.42;100694.38;106176;1271;22570;-56
2022/06/28 10:55:25;;;;;;;6.20;1.90;;;;;;;24.69;60.40;100692.16;106065;1271;22624;-56
2022/06/28 10:58:11;;;;;;;5.50;2.50;;;;;;;24.70;59.76;100699.61;105898;1270;22608;-55
2022/06/28 11:00:57;;;;;;;5.40;1.80;;;;;;;24.66;60.02;100695.45;106086;1271;25311;-55
2022/06/28 11:03:31;;;;;;;5.40;1.40;;;;;;;24.69;59.45;100698.90;106029;1271;22525;-56
2022/06/28 11:06:06;;;;;;;11.60;1.90;;;;;;;24.72;58.90;100702.00;105965;1270;25608;-56
2022/06/28 11:08:50;;;;;;;7.80;1.40;;;;;;;24.73;58.65;100704.73;105895;1271;22773;-57
2022/06/28 11:11:23;;;;;;;4.60;1.40;;;;;;;24.74;58.84;100701.55;105983;1270;26545;-56
2022/06/28 11:14:24;;;;;;;6.40;1.60;;;;;;;24.75;58.72;100703.76;106125;1270;22530;-58
2022/06/28 11:16:57;;;;;;;6.10;1.50;;;;;;;24.74;58.64;100703.21;105983;1270;22685;-56
2022/06/28 11:19:29;;;;;;;7.20;1.80;;;;;;;24.74;58.80;100708.55;106180;1269;22556;-54
2022/06/28 11:22:01;;;;;;;12.20;2.00;;;;;;;24.67;58.61;100711.09;106093;1270;25349;-54
2022/06/28 11:24:33;;;;;;;3.80;1.30;;;;;;;24.60;58.41;100712.27;106115;1271;25352;-57
2022/06/28 11:27:22;;;;;;;5.90;1.80;;;;;;;24.64;58.69;100711.23;106054;1270;22528;-56
2022/06/28 11:30:02;;;;;;;7.10;1.70;;;;;;;24.69;58.29;100713.34;106063;1270;23391;-57
2022/06/28 11:32:36;;;;;;;13.30;1.80;;;;;;;24.73;58.48;100719.98;106215;1271;23107;-57
2022/06/28 11:35:09;;;;;;;5.50;2.10;;;;;;;24.74;58.12;100719.86;106002;1271;22547;-57
2022/06/28 11:37:53;;;;;;;6.50;1.70;;;;;;;24.80;58.57;100729.34;106090;1269;22786;-55
2022/06/28 11:40:28;;;;;;;7.00;1.80;;;;;;;24.84;58.24;100734.95;106014;1271;22567;-56
2022/06/28 11:43:08;;;;;;;7.40;1.90;;;;;;;24.82;58.23;100732.89;105981;1270;25239;-55
2022/06/28 11:45:42;;;;;;;5.50;1.50;;;;;;;24.87;57.93;100742.61;106053;1271;23167;-56
2022/06/28 11:48:16;;;;;;;7.60;1.70;;;;;;;24.84;57.29;100748.06;106084;1271;25349;-57
2022/06/28 11:50:51;;;;;;;6.50;1.80;;;;;;;24.79;57.30;100745.67;106077;1271;22541;-56
2022/06/28 11:53:24;;;;;;;5.60;1.80;;;;;;;24.70;57.14;100747.84;105902;1270;22692;-56
2022/06/28 11:56:20;;;;;;;7.20;2.10;;;;;;;24.67;57.19;100745.39;106172;1270;22561;-57
2022/06/28 11:58:53;;;;;;;6.00;1.70;;;;;;;24.73;57.33;100737.85;106164;1270;22561;-58